Time;durP1;ratioP1;P1;durP2;ratioP2;P2;SDS_P1;SDS_P2;PMS_P1;PMS_P2;Temp;Humidity;BMP_temperature;BMP_pressure;BME280_temperature;BME280_humidity;BME280_pressure;Samples;Min_cycle;Max_cycle;Signal;HPM_P1;HPM_P2
2022/07/03 00:02:04;;;;;;;8.82;6.68;;;;;;;27.48;94.46;101289.72;5073586;28;20025;-73
2022/07/03 00:04:50;;;;;;;7.38;6.60;;;;;;;27.57;93.52;101291.72;5072928;28;20114;-74
2022/07/03 00:07:38;;;;;;;11.40;5.80;;;;;;;27.38;94.48;101291.44;5073352;28;20055;-73
2022/07/03 00:10:24;;;;;;;6.50;5.90;;;;;;;27.32;94.20;101283.84;5076365;28;20028;-74
2022/07/03 00:13:09;;;;;;;8.85;6.25;;;;;;;27.29;94.16;101284.94;5077677;28;20430;-73
2022/07/03 00:15:55;;;;;;;8.15;6.05;;;;;;;27.21;95.17;101281.97;5063046;28;20031;-75
2022/07/03 00:18:41;;;;;;;7.03;5.90;;;;;;;27.36;94.07;101280.78;5063307;28;20357;-74
2022/07/03 00:22:02;;;;;;;7.88;5.80;;;;;;;27.15;95.35;101286.94;5077517;28;20020;-73
2022/07/03 00:24:53;;;;;;;7.88;5.50;;;;;;;27.29;94.40;101281.41;5063550;28;20093;-73
2022/07/03 00:27:43;;;;;;;6.85;6.07;;;;;;;27.15;94.34;101287.81;5076860;28;20031;-73
2022/07/03 00:30:29;;;;;;;9.23;6.25;;;;;;;26.99;95.68;101281.91;5062725;28;20353;-72
2022/07/03 00:33:15;;;;;;;6.65;5.82;;;;;;;27.23;94.01;101285.41;5077449;28;20025;-73
2022/07/03 00:36:05;;;;;;;10.48;6.15;;;;;;;27.01;95.46;101274.56;5077469;28;20127;-74
2022/07/03 00:38:52;;;;;;;8.30;6.20;;;;;;;27.09;94.71;101276.66;5077856;28;20488;-75
2022/07/03 00:41:38;;;;;;;9.10;6.13;;;;;;;27.48;93.30;101270.06;5077401;28;20425;-76
2022/07/03 00:44:26;;;;;;;6.82;5.57;;;;;;;27.16;94.35;101273.38;5062486;28;20506;-74
2022/07/03 00:47:15;;;;;;;9.75;6.03;;;;;;;27.17;92.87;101260.78;5062212;28;20029;-73
2022/07/03 00:50:07;;;;;;;7.53;5.97;;;;;;;27.39;91.46;101260.84;5077059;28;20090;-74
2022/07/03 00:52:57;;;;;;;7.28;5.78;;;;;;;27.49;90.42;101262.69;5076703;28;20081;-74
2022/07/03 00:55:46;;;;;;;8.50;6.05;;;;;;;27.17;91.20;101263.47;5077070;28;20043;-74
2022/07/03 00:58:36;;;;;;;6.38;5.78;;;;;;;27.20;91.85;101263.25;5076613;28;20020;-73
2022/07/03 01:01:25;;;;;;;6.22;5.38;;;;;;;27.37;87.27;101260.13;5062568;28;20115;-73
2022/07/03 01:04:32;;;;;;;7.78;5.68;;;;;;;27.18;87.46;101257.13;5076448;28;20052;-72
2022/07/03 01:07:33;;;;;;;9.23;6.00;;;;;;;27.37;87.79;101258.28;5076268;28;20052;-72
2022/07/03 01:10:26;;;;;;;6.22;5.57;;;;;;;27.66;85.26;101252.41;5076171;28;20028;-73
2022/07/03 01:13:24;;;;;;;9.88;5.85;;;;;;;27.42;85.85;101252.53;5062607;28;20031;-73
2022/07/03 01:16:18;;;;;;;7.13;5.43;;;;;;;27.51;83.88;101248.28;5076063;28;20070;-73
2022/07/03 01:19:32;;;;;;;8.32;5.47;;;;;;;27.61;80.95;101251.94;5061449;28;20036;-72
2022/07/03 01:22:37;;;;;;;5.85;5.03;;;;;;;27.64;79.33;101249.00;5075711;28;20043;-74
2022/07/03 01:25:34;;;;;;;8.35;5.30;;;;;;;27.60;79.04;101242.16;5077452;28;20021;-74
2022/07/03 01:28:23;;;;;;;7.22;5.93;;;;;;;27.43;81.07;101251.56;5075468;28;20029;-73
2022/07/03 01:31:10;;;;;;;6.88;5.60;;;;;;;27.53;80.10;101248.00;5061325;28;20031;-73
2022/07/03 01:33:58;;;;;;;5.95;5.20;;;;;;;27.60;78.56;101248.38;5075850;28;20034;-74
2022/07/03 01:36:47;;;;;;;6.10;5.50;;;;;;;27.52;79.14;101251.69;5075674;28;20040;-74
2022/07/03 01:39:35;;;;;;;6.15;5.43;;;;;;;27.38;80.34;101256.44;5076114;28;20052;-73
2022/07/03 01:42:23;;;;;;;6.85;5.60;;;;;;;27.45;79.19;101263.06;5075927;28;20039;-74
2022/07/03 01:45:10;;;;;;;6.72;5.50;;;;;;;27.66;78.10;101252.41;5075398;28;20024;-75
2022/07/03 01:47:58;;;;;;;6.43;5.45;;;;;;;27.35;79.99;101256.69;5076427;28;20107;-74
2022/07/03 01:50:46;;;;;;;8.40;5.40;;;;;;;27.30;80.85;101259.75;5076246;28;20082;-74
2022/07/03 01:53:32;;;;;;;5.90;5.30;;;;;;;27.41;80.29;101256.22;5076098;28;20122;-74
2022/07/03 01:56:21;;;;;;;6.10;5.50;;;;;;;27.51;80.09;101249.13;5076433;28;20089;-74
2022/07/03 01:59:06;;;;;;;7.50;5.30;;;;;;;27.49;80.29;101260.00;5075098;28;20106;-74
2022/07/03 02:02:02;;;;;;;6.30;5.70;;;;;;;27.08;83.59;101256.97;5075797;28;20028;-73
2022/07/03 02:05:00;;;;;;;6.57;5.88;;;;;;;27.06;84.02;101258.94;5059842;28;20049;-73
2022/07/03 02:08:36;;;;;;;8.65;5.55;;;;;;;27.19;82.87;101256.13;5060587;28;20067;-75
2022/07/03 02:11:27;;;;;;;7.18;5.45;;;;;;;27.31;83.89;101263.28;5070994;28;20064;-74
2022/07/03 02:14:13;;;;;;;6.30;5.45;;;;;;;27.40;82.90;101262.56;5076036;28;20043;-73
2022/07/03 02:17:23;;;;;;;11.55;6.50;;;;;;;27.01;85.86;101257.56;5074722;28;20066;-74
2022/07/03 02:20:10;;;;;;;7.53;5.43;;;;;;;27.15;85.55;101262.72;5076481;28;20024;-74
2022/07/03 02:23:02;;;;;;;6.30;5.50;;;;;;;26.59;88.95;101256.31;5074639;28;20063;-74
2022/07/03 02:25:51;;;;;;;6.72;5.65;;;;;;;27.12;86.69;101254.88;5075205;28;20036;-74
2022/07/03 02:28:58;;;;;;;7.25;5.68;;;;;;;27.18;86.34;101258.00;5074030;28;20032;-73
2022/07/03 02:31:45;;;;;;;6.85;6.13;;;;;;;26.93;90.89;101262.69;5075061;28;20040;-74
2022/07/03 02:34:34;;;;;;;7.25;5.60;;;;;;;26.70;93.71;101263.56;5073326;28;20377;-74
2022/07/03 02:37:24;;;;;;;7.00;6.30;;;;;;;26.80;95.01;101261.91;5074919;28;20017;-74
2022/07/03 02:40:21;;;;;;;7.90;6.20;;;;;;;26.89;96.59;101266.56;5074998;28;20024;-74
2022/07/03 02:43:28;;;;;;;7.47;5.93;;;;;;;26.86;98.73;101270.38;5074334;28;20029;-74
2022/07/03 02:46:49;;;;;;;7.68;6.30;;;;;;;26.54;100.00;101277.28;5074066;28;20016;-73
2022/07/03 02:50:08;;;;;;;6.53;5.80;;;;;;;26.89;98.56;101266.56;5074560;28;20031;-74
2022/07/03 02:53:04;;;;;;;7.22;6.38;;;;;;;26.54;100.00;101269.22;5073319;28;20032;-73
2022/07/03 02:55:52;;;;;;;6.90;6.30;;;;;;;27.02;97.87;101276.28;5060611;28;20103;-74
2022/07/03 02:58:50;;;;;;;6.57;5.95;;;;;;;27.10;98.37;101283.75;5060699;28;20048;-75
2022/07/03 03:01:48;;;;;;;7.35;6.65;;;;;;;26.78;100.00;101282.66;5075033;28;20522;-75
2022/07/03 03:04:38;;;;;;;7.88;7.07;;;;;;;26.65;100.00;101280.03;5074407;28;20432;-75
2022/07/03 03:07:31;;;;;;;8.63;6.78;;;;;;;26.40;100.00;101285.50;5074644;28;20120;-74
2022/07/03 03:10:19;;;;;;;10.35;7.10;;;;;;;26.30;100.00;101297.03;5059688;28;20028;-74
2022/07/03 03:13:08;;;;;;;9.63;7.40;;;;;;;26.13;100.00;101292.03;5075050;28;20024;-73
2022/07/03 03:16:09;;;;;;;8.80;7.05;;;;;;;26.31;100.00;101288.00;5061084;28;20124;-74
2022/07/03 03:18:54;;;;;;;11.77;7.60;;;;;;;26.58;100.00;101296.75;5074499;28;20020;-74
2022/07/03 03:22:17;;;;;;;10.57;7.85;;;;;;;26.92;100.00;101295.91;5073864;28;20032;-75
2022/07/03 03:25:03;;;;;;;11.23;8.18;;;;;;;26.28;100.00;101301.69;5074515;28;20042;-75
2022/07/03 03:27:48;;;;;;;10.57;7.60;;;;;;;26.07;100.00;101304.09;5074258;28;20090;-74
2022/07/03 03:30:38;;;;;;;8.70;7.80;;;;;;;26.36;100.00;101308.19;5074143;28;20349;-74
2022/07/03 03:33:24;;;;;;;10.07;7.65;;;;;;;26.45;100.00;101301.28;5059185;28;20034;-74
2022/07/03 03:36:11;;;;;;;12.23;7.53;;;;;;;26.02;100.00;101300.00;5074346;28;20021;-74
2022/07/03 03:38:57;;;;;;;11.23;7.80;;;;;;;26.07;100.00;101300.53;5074837;28;20048;-75
2022/07/03 03:41:43;;;;;;;9.02;7.55;;;;;;;25.77;100.00;101300.03;5073858;28;20025;-75
2022/07/03 03:44:29;;;;;;;11.07;7.82;;;;;;;25.85;100.00;101308.38;5074474;28;20024;-73
2022/07/03 03:47:16;;;;;;;9.68;8.02;;;;;;;25.84;100.00;101304.00;5073936;28;20025;-74
2022/07/03 03:50:03;;;;;;;11.63;7.72;;;;;;;26.29;100.00;101317.66;5074534;28;20033;-73
2022/07/03 03:52:48;;;;;;;15.27;8.18;;;;;;;25.91;100.00;101306.13;5058921;28;20025;-73
2022/07/03 03:55:34;;;;;;;11.15;7.75;;;;;;;26.41;100.00;101310.53;5059391;28;20073;-74
2022/07/03 03:58:20;;;;;;;10.93;8.35;;;;;;;26.35;100.00;101310.97;5074338;28;20099;-74
2022/07/03 04:01:08;;;;;;;12.15;8.45;;;;;;;26.14;100.00;101308.06;5074502;28;20028;-73
2022/07/03 04:03:53;;;;;;;10.38;7.88;;;;;;;26.36;100.00;101310.88;5059412;28;20048;-74
2022/07/03 04:06:39;;;;;;;8.93;8.02;;;;;;;26.41;100.00;101315.94;5059316;28;20032;-74
2022/07/03 04:09:25;;;;;;;11.30;8.10;;;;;;;26.21;100.00;101312.03;5073739;28;20024;-74
2022/07/03 04:12:11;;;;;;;13.15;8.25;;;;;;;26.42;100.00;101317.63;5074097;28;20036;-74
2022/07/03 04:15:00;;;;;;;31.40;18.00;;;;;;;26.70;100.00;101315.53;5073465;28;20036;-75
2022/07/03 04:17:45;;;;;;;26.80;17.00;;;;;;;26.67;100.00;101321.13;5074641;28;20420;-74
2022/07/03 04:20:31;;;;;;;11.68;8.45;;;;;;;26.81;100.00;101315.56;5060179;28;20112;-73
2022/07/03 04:23:17;;;;;;;10.45;7.85;;;;;;;26.83;100.00;101310.06;5058478;28;20453;-76
2022/07/03 04:26:06;;;;;;;16.80;12.27;;;;;;;27.03;100.00;101318.34;5073806;28;20075;-74
2022/07/03 04:28:52;;;;;;;17.33;9.18;;;;;;;26.85;100.00;101326.94;5074177;28;20032;-73
2022/07/03 04:31:38;;;;;;;16.25;10.65;;;;;;;27.09;100.00;101325.94;5058563;28;20017;-74
2022/07/03 04:34:23;;;;;;;14.27;8.75;;;;;;;27.16;100.00;101318.25;5074262;28;20021;-75
2022/07/03 04:37:09;;;;;;;9.88;7.32;;;;;;;26.61;100.00;101323.41;5074672;28;20398;-74
2022/07/03 04:39:55;;;;;;;10.73;7.15;;;;;;;26.60;100.00;101322.53;5057973;28;20040;-73
2022/07/03 04:42:40;;;;;;;11.20;7.40;;;;;;;26.63;100.00;101326.81;5074190;28;20033;-74
2022/07/03 04:45:26;;;;;;;10.48;7.60;;;;;;;26.88;100.00;101326.72;5073458;28;20457;-74
2022/07/03 04:48:12;;;;;;;8.60;7.13;;;;;;;26.59;100.00;101333.41;5072770;28;20028;-74
2022/07/03 04:50:58;;;;;;;11.77;8.00;;;;;;;26.90;100.00;101330.16;5073399;28;20043;-74
2022/07/03 04:53:44;;;;;;;10.65;7.10;;;;;;;26.96;100.00;101333.22;5073046;28;20108;-74
2022/07/03 04:56:30;;;;;;;8.90;7.40;;;;;;;26.88;100.00;101330.25;5074478;28;20039;-74
2022/07/03 04:59:15;;;;;;;10.38;7.40;;;;;;;27.15;100.00;101324.63;5076803;28;20038;-73
2022/07/03 05:02:01;;;;;;;9.65;7.82;;;;;;;26.79;100.00;101325.56;5061899;28;20036;-73
2022/07/03 05:04:47;;;;;;;12.43;8.18;;;;;;;26.85;100.00;101322.41;5076539;28;20057;-75
2022/07/03 05:07:33;;;;;;;118.10;57.30;;;;;;;27.73;100.00;101331.75;5076975;28;20384;-73
2022/07/03 05:10:19;;;;;;;25.30;14.27;;;;;;;27.60;100.00;101331.84;5076775;28;20362;-75
2022/07/03 05:13:04;;;;;;;15.90;10.52;;;;;;;27.40;100.00;101330.72;5077653;28;20041;-74
2022/07/03 05:15:50;;;;;;;10.38;9.07;;;;;;;27.27;100.00;101337.16;5076664;28;20035;-74
2022/07/03 05:18:36;;;;;;;21.90;14.10;;;;;;;27.66;100.00;101336.78;5076476;28;20016;-74
2022/07/03 05:21:22;;;;;;;23.90;13.68;;;;;;;28.04;100.00;101334.59;5076166;28;20028;-73
2022/07/03 05:24:07;;;;;;;10.60;9.07;;;;;;;27.58;100.00;101333.81;5076195;28;20440;-74
2022/07/03 05:26:53;;;;;;;9.15;8.25;;;;;;;27.86;100.00;101337.91;5076622;28;20032;-74
2022/07/03 05:29:39;;;;;;;10.40;7.93;;;;;;;28.00;100.00;101335.84;5062234;28;20103;-74
2022/07/03 05:32:25;;;;;;;12.27;8.60;;;;;;;27.91;100.00;101341.09;5061211;28;20185;-74
2022/07/03 05:35:11;;;;;;;35.20;16.95;;;;;;;28.09;100.00;101340.50;5076179;28;20093;-74
2022/07/03 05:37:56;;;;;;;12.48;9.40;;;;;;;28.19;100.00;101346.00;5077462;28;20016;-74
2022/07/03 05:40:42;;;;;;;12.45;9.05;;;;;;;27.56;100.00;101343.00;5075400;28;20043;-74
2022/07/03 05:43:28;;;;;;;9.65;8.65;;;;;;;27.83;100.00;101343.53;5076467;28;20024;-74
2022/07/03 05:46:13;;;;;;;11.25;9.18;;;;;;;27.98;100.00;101343.19;5075888;28;20020;-74
2022/07/03 05:48:59;;;;;;;10.55;8.48;;;;;;;27.95;100.00;101351.50;5076364;28;20025;-74
2022/07/03 05:51:45;;;;;;;10.73;8.18;;;;;;;28.02;100.00;101358.13;5061894;28;20044;-75
2022/07/03 05:54:31;;;;;;;9.57;7.97;;;;;;;28.24;100.00;101358.13;5075284;28;20044;-74
2022/07/03 05:57:17;;;;;;;11.10;9.07;;;;;;;28.71;100.00;101363.22;5075896;28;20020;-74
2022/07/03 06:00:04;;;;;;;10.30;8.93;;;;;;;28.47;100.00;101362.53;5076196;28;20417;-74
2022/07/03 06:02:49;;;;;;;11.25;8.32;;;;;;;28.15;100.00;101361.56;5075038;28;20028;-73
2022/07/03 06:05:35;;;;;;;10.25;9.15;;;;;;;28.27;100.00;101367.78;5075328;28;20055;-73
2022/07/03 06:08:21;;;;;;;13.38;9.13;;;;;;;28.24;100.00;101366.19;5075648;28;20048;-74
2022/07/03 06:11:07;;;;;;;10.32;8.55;;;;;;;28.17;100.00;101362.31;5074895;28;20119;-74
2022/07/03 06:13:53;;;;;;;9.98;8.95;;;;;;;27.81;100.00;101365.19;5075737;28;20025;-74
2022/07/03 06:16:38;;;;;;;10.10;8.85;;;;;;;28.33;100.00;101362.75;5075638;28;20403;-75
2022/07/03 06:19:24;;;;;;;13.13;9.20;;;;;;;28.38;100.00;101367.78;5075578;28;20067;-75
2022/07/03 06:22:10;;;;;;;11.38;8.98;;;;;;;28.25;100.00;101362.53;5075433;28;20075;-74
2022/07/03 06:24:56;;;;;;;11.10;8.63;;;;;;;28.74;100.00;101356.72;5060963;28;20040;-76
2022/07/03 06:27:42;;;;;;;10.60;8.43;;;;;;;29.10;100.00;101365.34;5075350;28;20448;-73
2022/07/03 06:30:28;;;;;;;9.60;8.60;;;;;;;28.88;100.00;101362.69;5061047;28;20105;-73
2022/07/03 06:33:13;;;;;;;11.90;8.93;;;;;;;28.63;100.00;101370.22;5060527;28;20032;-74
2022/07/03 06:35:59;;;;;;;12.63;8.80;;;;;;;28.74;100.00;101357.59;5061684;28;20052;-73
2022/07/03 06:38:45;;;;;;;11.88;9.68;;;;;;;28.98;100.00;101355.56;5074477;28;20025;-73
2022/07/03 06:41:31;;;;;;;10.52;8.77;;;;;;;29.15;100.00;101354.13;5074779;28;20083;-74
2022/07/03 06:44:16;;;;;;;8.80;7.90;;;;;;;28.96;100.00;101353.94;5074384;28;20021;-74
2022/07/03 06:47:03;;;;;;;12.40;8.50;;;;;;;28.96;100.00;101352.09;5074012;28;20511;-74
2022/07/03 06:49:48;;;;;;;14.15;10.20;;;;;;;29.33;100.00;101347.19;5075219;28;20028;-72
2022/07/03 06:52:34;;;;;;;12.60;10.32;;;;;;;29.67;100.00;101351.41;5074647;28;20491;-74
2022/07/03 06:55:20;;;;;;;12.23;9.55;;;;;;;29.62;100.00;101350.97;5075157;28;20399;-73
2022/07/03 06:58:06;;;;;;;9.98;8.98;;;;;;;29.78;100.00;101356.75;5074830;28;20099;-73
2022/07/03 07:00:51;;;;;;;32.60;20.55;;;;;;;30.36;100.00;101356.91;5063725;28;20055;-72
2022/07/03 07:03:37;;;;;;;14.70;9.38;;;;;;;30.17;100.00;101354.13;5082828;28;20056;-71
2022/07/03 07:06:23;;;;;;;11.18;8.95;;;;;;;29.64;100.00;101347.16;5085037;28;20060;-72
2022/07/03 07:09:09;;;;;;;11.40;8.38;;;;;;;30.39;100.00;101350.34;5069439;28;20063;-71
2022/07/03 07:11:54;;;;;;;14.25;8.52;;;;;;;30.87;100.00;101352.19;5084099;28;20067;-70
2022/07/03 07:14:40;;;;;;;13.90;8.35;;;;;;;30.97;100.00;101349.47;5084356;28;20020;-70
2022/07/03 07:17:26;;;;;;;11.73;8.52;;;;;;;31.10;100.00;101359.03;5084757;28;20016;-70
2022/07/03 07:20:12;;;;;;;12.90;8.40;;;;;;;31.00;99.93;101347.38;5083861;28;20396;-74
2022/07/03 07:22:57;;;;;;;10.25;8.65;;;;;;;30.76;100.00;101344.22;5074367;28;20029;-74
2022/07/03 07:25:43;;;;;;;9.45;8.15;;;;;;;30.84;100.00;101349.78;5060273;28;20035;-74
2022/07/03 07:28:30;;;;;;;10.38;8.90;;;;;;;31.42;98.39;101343.38;5074151;28;20025;-73
2022/07/03 07:31:16;;;;;;;10.57;8.50;;;;;;;31.31;95.30;101346.22;5060727;28;20029;-73
2022/07/03 07:34:04;;;;;;;10.68;8.10;;;;;;;31.38;96.34;101346.53;5074043;28;20456;-75
2022/07/03 07:36:49;;;;;;;9.73;8.73;;;;;;;31.94;93.30;101355.53;5060083;28;20032;-73
2022/07/03 07:39:35;;;;;;;9.98;7.95;;;;;;;31.17;94.55;101348.50;5074470;28;20044;-74
2022/07/03 07:42:21;;;;;;;12.43;9.00;;;;;;;32.16;94.63;101348.88;5074331;28;20028;-74
2022/07/03 07:45:07;;;;;;;15.30;9.35;;;;;;;31.92;96.99;101352.13;5058906;28;20020;-73
2022/07/03 07:47:53;;;;;;;10.95;9.00;;;;;;;31.61;99.84;101355.19;5074585;28;20017;-74
2022/07/03 07:50:39;;;;;;;12.35;9.30;;;;;;;31.78;98.90;101351.75;5082373;28;20029;-72
2022/07/03 07:53:24;;;;;;;9.90;8.80;;;;;;;32.13;97.88;101360.03;5068035;28;20051;-73
2022/07/03 07:56:10;;;;;;;12.75;8.52;;;;;;;32.52;95.24;101353.44;5080088;28;20025;-73
2022/07/03 07:58:56;;;;;;;11.75;8.73;;;;;;;33.00;92.68;101356.72;5083105;28;20017;-73
2022/07/03 08:07:50;;;;;;;11.43;8.15;;;;;;;33.48;78.64;101343.56;5085105;28;20369;-74
2022/07/03 08:10:42;;;;;;;9.52;7.05;;;;;;;32.98;75.60;101350.59;5085212;28;20039;-74
2022/07/03 08:13:27;;;;;;;9.55;7.68;;;;;;;32.98;76.69;101354.13;5071770;28;20028;-73
2022/07/03 08:16:14;;;;;;;11.30;6.88;;;;;;;33.09;72.47;101356.63;5087937;28;20029;-73
2022/07/03 08:19:00;;;;;;;8.90;6.38;;;;;;;32.57;60.13;101359.25;5071829;28;20016;-73
2022/07/03 08:21:45;;;;;;;9.25;6.03;;;;;;;32.57;58.79;101356.53;5085626;28;20107;-73
2022/07/03 08:24:31;;;;;;;10.02;7.22;;;;;;;33.51;66.67;101359.56;5083006;28;20124;-74
2022/07/03 08:27:17;;;;;;;8.35;7.35;;;;;;;33.49;71.77;101358.88;5060922;28;20078;-75
2022/07/03 08:30:04;;;;;;;9.73;8.02;;;;;;;33.56;70.89;101370.81;5077829;28;20035;-73
2022/07/03 08:32:53;;;;;;;11.07;7.50;;;;;;;33.08;68.69;101371.22;5081655;28;20024;-74
2022/07/03 08:35:38;;;;;;;8.10;7.03;;;;;;;32.87;73.59;101369.81;5086273;28;20109;-74
2022/07/03 08:38:30;;;;;;;13.93;7.53;;;;;;;32.66;76.15;101369.22;5068984;28;20093;-72
2022/07/03 08:41:17;;;;;;;13.57;7.40;;;;;;;32.71;69.75;101362.31;5084044;28;20169;-72
2022/07/03 08:44:04;;;;;;;8.95;7.15;;;;;;;32.39;69.18;101361.94;5084164;28;20028;-74
2022/07/03 08:46:51;;;;;;;7.60;6.50;;;;;;;32.61;69.89;101366.94;5081294;28;20028;-75
2022/07/03 08:49:38;;;;;;;7.55;6.78;;;;;;;32.59;65.76;101373.53;5069479;28;20109;-75
2022/07/03 08:52:24;;;;;;;9.40;6.63;;;;;;;33.31;62.13;101367.00;5089346;28;20103;-74
2022/07/03 08:55:13;;;;;;;7.50;6.40;;;;;;;33.04;63.63;101369.84;5088220;28;20437;-75
2022/07/03 08:58:00;;;;;;;8.45;6.63;;;;;;;33.26;64.63;101371.22;5087759;28;20028;-74
2022/07/03 09:00:46;;;;;;;7.88;7.07;;;;;;;33.44;59.22;101370.22;5089083;28;20024;-74
2022/07/03 09:03:32;;;;;;;10.77;8.27;;;;;;;33.48;62.48;101377.06;5075067;28;20075;-74
2022/07/03 09:06:18;;;;;;;10.27;7.85;;;;;;;33.06;70.48;101372.41;5087071;28;20101;-74
2022/07/03 09:09:03;;;;;;;8.50;7.55;;;;;;;33.89;63.91;101375.50;5089642;28;20024;-76
2022/07/03 09:11:50;;;;;;;8.35;7.50;;;;;;;33.46;63.07;101376.34;5075261;28;20103;-74
2022/07/03 09:14:36;;;;;;;8.82;7.93;;;;;;;33.08;64.74;101373.94;5088743;28;20093;-74
2022/07/03 09:17:22;;;;;;;10.32;8.00;;;;;;;33.50;66.16;101376.88;5084744;28;20044;-74
2022/07/03 09:20:08;;;;;;;8.65;7.85;;;;;;;33.25;71.12;101372.22;5086278;28;20028;-74
2022/07/03 09:22:57;;;;;;;10.15;8.48;;;;;;;33.68;71.78;101380.41;5080630;28;20033;-74
2022/07/03 09:26:01;;;;;;;10.32;7.78;;;;;;;33.90;68.88;101380.78;5079981;28;20040;-73
2022/07/03 09:28:55;;;;;;;10.35;7.63;;;;;;;33.33;70.25;101375.91;5079459;28;20025;-74
2022/07/03 09:31:42;;;;;;;11.40;8.02;;;;;;;33.45;68.51;101374.66;5079436;28;20029;-73
2022/07/03 09:34:27;;;;;;;8.60;7.70;;;;;;;33.44;69.16;101372.94;5079156;28;20035;-74
2022/07/03 09:37:24;;;;;;;15.07;9.10;;;;;;;33.41;70.58;101377.81;5077932;28;20089;-74
2022/07/03 09:40:10;;;;;;;12.05;8.30;;;;;;;33.19;68.84;101372.84;5062268;28;20032;-73
2022/07/03 09:43:06;;;;;;;14.68;8.25;;;;;;;32.98;72.42;101375.03;5077234;28;20067;-74
2022/07/03 09:46:02;;;;;;;10.32;7.65;;;;;;;32.92;76.25;101379.22;5076750;28;20449;-74
2022/07/03 09:48:51;;;;;;;12.57;8.00;;;;;;;32.79;79.34;101375.97;5062274;28;20086;-73
2022/07/03 09:51:37;;;;;;;8.50;7.55;;;;;;;32.80;75.21;101376.84;5076374;28;20111;-75
2022/07/03 09:54:23;;;;;;;15.07;7.95;;;;;;;32.74;74.09;101375.56;5061113;28;20025;-73
2022/07/03 09:57:12;;;;;;;10.10;8.05;;;;;;;32.49;78.35;101367.31;5075534;28;20415;-76
2022/07/03 10:00:19;;;;;;;11.18;8.90;;;;;;;32.34;83.40;101358.81;5062447;28;20028;-73
2022/07/03 10:03:09;;;;;;;13.05;9.23;;;;;;;32.59;88.50;101359.97;5049072;28;20028;-74
2022/07/03 10:06:03;;;;;;;13.93;9.52;;;;;;;31.98;97.50;101348.81;5076453;28;20024;-73
2022/07/03 10:08:50;;;;;;;75.03;58.42;;;;;;;31.89;100.00;101352.41;5076369;28;20115;-74
2022/07/03 10:11:36;;;;;;;13.90;9.77;;;;;;;31.59;100.00;101358.03;5076200;28;20083;-73
2022/07/03 10:14:31;;;;;;;15.88;8.77;;;;;;;32.29;99.72;101350.28;5061713;28;20119;-73
2022/07/03 10:17:17;;;;;;;14.45;8.75;;;;;;;32.27;96.20;101344.13;5076226;28;20342;-72
2022/07/03 10:20:03;;;;;;;11.20;9.15;;;;;;;32.20;93.71;101348.44;5061794;28;20036;-73
2022/07/03 10:22:49;;;;;;;13.75;9.63;;;;;;;32.16;96.17;101338.91;5075329;28;20067;-73
2022/07/03 10:25:36;;;;;;;15.35;9.02;;;;;;;31.84;96.57;101343.00;5060486;28;20464;-74
2022/07/03 10:28:22;;;;;;;12.98;9.25;;;;;;;31.91;95.16;101338.72;5074545;28;20025;-74
2022/07/03 10:31:08;;;;;;;13.43;9.30;;;;;;;32.77;92.05;101320.97;5075454;28;20016;-75
2022/07/03 10:33:56;;;;;;;10.93;7.82;;;;;;;33.10;83.95;101327.63;5075080;28;20029;-74
2022/07/03 10:36:43;;;;;;;11.88;7.50;;;;;;;33.51;79.79;101324.25;5074742;28;20024;-74
2022/07/03 10:39:36;;;;;;;11.25;6.82;;;;;;;33.73;72.59;101323.69;5074786;28;20025;-74
2022/07/03 10:45:35;;;;;;;10.23;6.85;;;;;;;34.36;64.94;101323.22;5074861;28;20035;-72
2022/07/03 10:48:21;;;;;;;7.45;6.57;;;;;;;34.42;64.79;101324.41;5059697;28;20028;-71
2022/07/03 10:51:12;;;;;;;9.25;6.68;;;;;;;34.34;63.44;101322.53;5074832;28;20048;-72
2022/07/03 10:54:18;;;;;;;8.27;6.00;;;;;;;33.98;66.37;101314.69;5059123;28;20048;-71
2022/07/03 10:57:08;;;;;;;13.95;6.53;;;;;;;34.64;64.88;101315.66;5059307;28;20360;-73
2022/07/03 10:59:54;;;;;;;11.52;7.60;;;;;;;35.11;64.96;101301.25;5074503;28;20467;-74
2022/07/03 11:02:43;;;;;;;8.73;6.40;;;;;;;34.52;67.52;101312.38;5073752;28;20032;-74
2022/07/03 11:05:37;;;;;;;8.57;6.00;;;;;;;34.27;62.25;101307.84;5060360;28;20055;-73
2022/07/03 11:08:23;;;;;;;10.18;5.90;;;;;;;34.17;65.70;101306.28;5073518;28;20052;-73
2022/07/03 11:11:56;;;;;;;9.88;7.10;;;;;;;34.29;66.61;101303.09;5073728;28;20021;-74
2022/07/03 11:14:42;;;;;;;10.07;6.03;;;;;;;33.71;66.88;101295.84;5059216;28;20384;-72
2022/07/03 11:17:28;;;;;;;6.60;5.45;;;;;;;33.69;66.50;101297.84;5074218;28;20020;-74
2022/07/03 11:20:25;;;;;;;8.18;5.70;;;;;;;33.47;69.44;101298.41;5074533;28;20017;-71
2022/07/03 11:23:26;;;;;;;11.30;5.63;;;;;;;33.66;68.49;101287.28;5073923;28;20024;-72
2022/07/03 11:26:12;;;;;;;6.07;5.45;;;;;;;33.53;68.28;101279.59;5073929;28;20028;-73
2022/07/03 11:28:57;;;;;;;7.57;5.72;;;;;;;33.64;67.18;101281.16;5073419;28;20024;-74
2022/07/03 11:31:43;;;;;;;9.10;5.32;;;;;;;34.26;64.91;101288.97;5059827;28;20200;-73
2022/07/03 11:34:42;;;;;;;8.65;5.20;;;;;;;34.11;63.71;101282.47;5059901;28;20021;-73
2022/07/03 11:37:30;;;;;;;7.20;5.25;;;;;;;34.42;61.28;101279.00;5074426;28;20028;-72
2022/07/03 11:40:18;;;;;;;9.13;4.93;;;;;;;34.23;62.01;101279.25;5073887;28;20027;-73
2022/07/03 11:43:05;;;;;;;5.45;4.93;;;;;;;33.82;63.04;101271.94;5073385;28;20051;-70
2022/07/03 11:45:51;;;;;;;6.07;5.00;;;;;;;33.51;63.75;101269.88;5059982;28;20024;-72
2022/07/03 11:48:37;;;;;;;9.38;5.55;;;;;;;33.15;65.09;101265.53;5073203;28;20178;-72
2022/07/03 11:51:22;;;;;;;12.23;5.60;;;;;;;33.41;69.05;101261.84;5074125;28;20020;-72
2022/07/03 11:54:09;;;;;;;10.70;5.15;;;;;;;33.34;71.26;101251.75;5073190;28;20021;-73
2022/07/03 11:56:55;;;;;;;10.85;5.70;;;;;;;33.27;71.30;101253.38;5073953;28;20021;-73
2022/07/03 11:59:41;;;;;;;9.13;6.30;;;;;;;33.64;69.60;101249.41;5073774;28;20028;-73
2022/07/03 12:02:27;;;;;;;16.52;12.40;;;;;;;33.40;68.99;101246.56;5060559;28;20358;-72
2022/07/03 12:05:16;;;;;;;12.50;6.57;;;;;;;33.33;70.03;101252.78;5074312;28;20123;-72
2022/07/03 12:08:05;;;;;;;8.65;5.88;;;;;;;33.46;71.67;101242.31;5078799;28;20052;-73
2022/07/03 12:10:57;;;;;;;6.10;5.50;;;;;;;33.70;71.74;101247.88;5077098;28;20530;-72
2022/07/03 12:13:43;;;;;;;11.00;5.32;;;;;;;33.54;67.82;101232.34;5077989;28;20036;-73
2022/07/03 12:16:33;;;;;;;7.18;5.60;;;;;;;33.71;67.76;101231.41;5077580;28;20039;-73
2022/07/03 12:19:19;;;;;;;8.13;5.10;;;;;;;33.59;67.85;101231.88;5062761;28;20029;-72
2022/07/03 12:22:05;;;;;;;6.35;5.50;;;;;;;33.58;68.70;101231.00;5062813;28;20025;-73
2022/07/03 12:24:58;;;;;;;8.07;6.00;;;;;;;33.87;65.91;101226.09;5077694;28;20025;-72
2022/07/03 12:27:45;;;;;;;10.48;5.78;;;;;;;34.02;65.67;101227.16;5076885;28;20044;-73
2022/07/03 12:30:31;;;;;;;13.80;5.65;;;;;;;34.45;62.70;101213.38;5078039;28;20465;-72
2022/07/03 12:33:17;;;;;;;11.25;5.88;;;;;;;34.07;63.37;101226.69;5077569;28;20028;-72
2022/07/03 12:36:05;;;;;;;10.07;5.63;;;;;;;34.41;61.70;101205.69;5078407;28;20024;-74
2022/07/03 12:38:56;;;;;;;10.25;5.57;;;;;;;34.79;60.64;101202.31;5077349;28;20021;-73
2022/07/03 12:41:42;;;;;;;9.02;5.72;;;;;;;34.96;59.63;101206.78;5063359;28;20361;-73
2022/07/03 12:44:28;;;;;;;9.70;5.60;;;;;;;34.49;59.42;101203.84;5076799;28;20093;-72
2022/07/03 12:47:16;;;;;;;13.48;5.68;;;;;;;34.35;59.22;101201.75;5076468;28;20103;-73
2022/07/03 12:50:04;;;;;;;9.93;5.50;;;;;;;34.61;55.40;101198.91;5077559;28;20024;-73
2022/07/03 12:52:51;;;;;;;10.52;5.93;;;;;;;34.62;53.61;101195.16;5076778;28;20047;-73
2022/07/03 12:55:44;;;;;;;13.35;5.95;;;;;;;34.87;52.76;101189.56;5061897;28;20460;-73
2022/07/03 13:01:37;;;;;;;6.97;5.38;;;;;;;35.38;50.99;101184.72;5078076;28;20024;-76
2022/07/03 13:04:30;;;;;;;9.48;5.72;;;;;;;35.43;49.66;101185.09;5076097;28;20050;-75
2022/07/03 13:07:16;;;;;;;8.27;5.30;;;;;;;34.87;50.79;101180.53;5062187;28;20024;-76
2022/07/03 13:10:02;;;;;;;11.18;5.28;;;;;;;35.22;49.49;101180.16;5075961;28;20025;-76